Terminal Aerodrome Forecast
Issued by NWS Albany, NY

Home | Current Version | Previous Version | Text Only | Print | Product List | Glossary On
Versions: 1 2 3 4 5 6 7 8 9 10 11 12 13 14 15 16 17 18
000
FTUS41 KALY 191135
TAFPOU
TAF
KPOU 191135Z 1912/2012 35006KT P6SM SKC
     FM191400 05006KT P6SM SKC
     FM191800 12006KT P6SM SCT250
     FM200100 14006KT P6SM BKN150
     FM200600 14008KT P6SM BKN100 OVC150
     FM201000 08012KT P6SM VCSH BKN020 OVC090=

USA.gov is the U.S. government's official web portal to all federal, state and local government web resources and services.